Time;durP1;ratioP1;P1;durP2;ratioP2;P2;SDS_P1;SDS_P2;PMS_P1;PMS_P2;Temp;Humidity;BMP_temperature;BMP_pressure;BME280_temperature;BME280_humidity;BME280_pressure;Samples;Min_cycle;Max_cycle;Signal;HPM_P1;HPM_P2
2023/12/14 00:01:59;;;;;;;2.65;1.63;;;5.50;59.50;;;;;;5017206;28;20137;-83
2023/12/14 00:04:25;;;;;;;2.83;2.03;;;5.50;59.60;;;;;;5033490;28;20032;-82
2023/12/14 00:06:51;;;;;;;4.95;2.40;;;5.40;59.40;;;;;;5036719;28;20033;-79
2023/12/14 00:09:17;;;;;;;3.55;1.98;;;5.40;59.40;;;;;;5038047;28;20463;-83
2023/12/14 00:11:44;;;;;;;4.82;2.17;;;5.40;59.40;;;;;;5022169;28;20033;-78
2023/12/14 00:14:09;;;;;;;3.65;2.08;;;5.30;59.30;;;;;;5000721;28;20048;-80
2023/12/14 00:16:35;;;;;;;2.55;1.80;;;5.30;59.30;;;;;;5035383;28;20405;-81
2023/12/14 00:19:02;;;;;;;5.60;2.50;;;5.30;59.30;;;;;;5006887;28;20087;-78
2023/12/14 00:21:28;;;;;;;3.58;2.28;;;5.20;59.20;;;;;;5036979;28;20106;-81
2023/12/14 00:23:54;;;;;;;4.38;2.53;;;5.20;59.20;;;;;;5037735;28;20037;-76
2023/12/14 00:26:20;;;;;;;4.43;2.33;;;5.20;59.20;;;;;;5006785;28;20172;-81
2023/12/14 00:28:49;;;;;;;3.75;2.45;;;5.10;59.10;;;;;;4990306;28;20053;-82
2023/12/14 00:31:15;;;;;;;3.38;2.47;;;5.10;59.10;;;;;;5001916;28;20374;-79
2023/12/14 00:33:42;;;;;;;4.07;2.38;;;5.10;59.10;;;;;;5023788;28;20029;-82
2023/12/14 00:36:08;;;;;;;3.72;2.40;;;5.00;59.00;;;;;;5020244;28;20343;-81
2023/12/14 00:38:34;;;;;;;5.15;2.70;;;5.00;59.00;;;;;;5037883;28;20240;-82
2023/12/14 00:41:01;;;;;;;3.33;2.40;;;5.00;59.00;;;;;;5044926;28;20074;-84
2023/12/14 00:43:27;;;;;;;3.55;2.47;;;5.00;59.10;;;;;;5022952;28;20040;-83
2023/12/14 00:45:53;;;;;;;4.53;2.20;;;4.90;58.90;;;;;;5026358;28;20026;-86
2023/12/14 00:48:19;;;;;;;3.42;2.17;;;4.90;58.90;;;;;;5043788;28;20033;-82
2023/12/14 00:50:48;;;;;;;2.90;2.00;;;4.90;58.90;;;;;;5026230;28;20029;-80
2023/12/14 00:53:16;;;;;;;3.13;1.90;;;4.90;59.00;;;;;;5022105;28;20380;-77
2023/12/14 00:55:41;;;;;;;5.50;1.77;;;4.90;59.00;;;;;;5042773;28;20048;-81
2023/12/14 00:58:08;;;;;;;3.50;1.98;;;4.80;58.80;;;;;;5039531;28;20498;-81
2023/12/14 01:00:34;;;;;;;5.95;2.05;;;4.80;58.80;;;;;;5041120;28;20029;-80
2023/12/14 01:03:00;;;;;;;4.03;2.20;;;4.70;58.70;;;;;;5042755;28;20032;-79
2023/12/14 01:05:26;;;;;;;3.05;1.90;;;4.70;58.70;;;;;;5043039;28;20028;-81
2023/12/14 01:07:52;;;;;;;4.00;1.95;;;4.70;58.80;;;;;;5025422;28;20079;-80
2023/12/14 01:10:18;;;;;;;2.70;1.88;;;4.70;58.70;;;;;;5022827;28;20056;-80
2023/12/14 01:12:44;;;;;;;2.85;1.83;;;4.60;58.60;;;;;;5009732;28;20440;-80
2023/12/14 01:15:11;;;;;;;2.95;1.83;;;4.70;58.80;;;;;;5027377;28;20032;-84
2023/12/14 01:17:37;;;;;;;3.22;1.83;;;4.60;58.60;;;;;;5045209;28;20033;-88
2023/12/14 01:20:07;;;;;;;3.33;1.73;;;4.60;58.70;;;;;;5050773;28;20031;-81
2023/12/14 01:22:34;;;;;;;4.28;1.63;;;4.60;58.70;;;;;;5045330;28;20036;-86
2023/12/14 01:25:00;;;;;;;1.55;1.35;;;4.50;58.50;;;;;;5045312;28;20021;-86
2023/12/14 01:27:26;;;;;;;3.28;1.60;;;4.50;58.50;;;;;;5026259;28;20392;-80
2023/12/14 01:29:52;;;;;;;4.03;1.95;;;4.50;58.60;;;;;;5047622;28;20033;-86
2023/12/14 01:32:19;;;;;;;2.20;1.60;;;4.50;58.60;;;;;;5023430;28;20108;-79
2023/12/14 01:34:46;;;;;;;4.32;2.13;;;4.50;58.60;;;;;;5042534;28;20025;-76
2023/12/14 01:37:12;;;;;;;3.85;1.88;;;4.50;58.70;;;;;;5044305;28;20035;-79
2023/12/14 01:39:38;;;;;;;4.20;2.55;;;4.40;58.50;;;;;;5042071;28;20096;-83
2023/12/14 01:42:04;;;;;;;3.22;1.90;;;4.40;58.50;;;;;;5042505;28;20033;-81
2023/12/14 01:44:30;;;;;;;2.47;1.75;;;4.40;58.50;;;;;;5040611;28;20570;-78
2023/12/14 01:46:56;;;;;;;5.75;2.88;;;4.40;58.50;;;;;;5023439;28;20037;-81
2023/12/14 01:49:22;;;;;;;3.53;1.70;;;4.40;58.50;;;;;;5026818;28;20039;-78
2023/12/14 01:51:48;;;;;;;3.33;2.20;;;4.40;58.50;;;;;;5041316;28;20480;-74
2023/12/14 01:54:15;;;;;;;3.38;1.83;;;4.30;58.40;;;;;;5034256;28;20083;-74
2023/12/14 01:56:41;;;;;;;3.83;1.80;;;4.30;58.40;;;;;;5020321;28;20039;-80
2023/12/14 01:59:07;;;;;;;2.00;1.73;;;4.30;58.40;;;;;;5024446;28;20061;-76
2023/12/14 02:01:41;;;;;;;2.65;1.70;;;4.30;58.50;;;;;;5015617;28;20087;-76
2023/12/14 02:04:08;;;;;;;5.28;2.38;;;4.30;58.50;;;;;;5023636;28;20036;-79
2023/12/14 02:06:35;;;;;;;4.32;2.28;;;4.30;58.50;;;;;;5026230;28;20088;-82
2023/12/14 02:09:02;;;;;;;1.73;1.63;;;4.20;58.40;;;;;;5020964;28;20049;-79
2023/12/14 02:11:31;;;;;;;3.17;1.83;;;4.30;58.60;;;;;;5024262;28;20033;-85
2023/12/14 02:13:57;;;;;;;4.40;1.75;;;4.30;58.60;;;;;;5045545;28;20582;-75
2023/12/14 02:16:23;;;;;;;2.33;1.90;;;4.30;58.60;;;;;;5024611;28;20044;-81
2023/12/14 02:18:49;;;;;;;3.75;1.70;;;4.20;58.50;;;;;;5024706;28;20429;-87
2023/12/14 02:21:18;;;;;;;3.60;1.70;;;4.30;58.70;;;;;;5042991;28;20392;-84
2023/12/14 02:23:45;;;;;;;3.72;2.00;;;4.30;58.70;;;;;;5025463;28;20236;-83
2023/12/14 02:26:12;;;;;;;4.03;2.20;;;4.30;58.80;;;;;;5026123;28;20041;-83
2023/12/14 02:28:38;;;;;;;2.22;1.80;;;4.30;58.70;;;;;;5042856;28;20128;-84
2023/12/14 02:31:04;;;;;;;3.63;1.73;;;4.30;58.80;;;;;;5030676;23;20045;-74
2023/12/14 02:33:31;;;;;;;3.67;2.00;;;4.30;58.80;;;;;;5002154;28;20029;-77
2023/12/14 02:35:57;;;;;;;3.15;1.90;;;4.30;58.90;;;;;;5020527;28;20041;-76
2023/12/14 02:38:22;;;;;;;3.75;1.90;;;4.30;58.80;;;;;;5017063;28;20044;-76
2023/12/14 02:40:52;;;;;;;2.47;1.52;;;4.30;58.80;;;;;;5019910;28;20079;-76
2023/12/14 02:43:19;;;;;;;2.53;1.90;;;4.30;58.90;;;;;;4999117;28;20544;-74
2023/12/14 02:45:45;;;;;;;2.88;1.65;;;4.40;59.10;;;;;;5029393;23;20029;-89
2023/12/14 02:48:12;;;;;;;2.72;1.75;;;4.30;58.90;;;;;;5035136;28;20126;-87
2023/12/14 02:50:38;;;;;;;4.07;2.10;;;4.30;58.90;;;;;;5027360;28;20029;-93
2023/12/14 02:53:04;;;;;;;5.32;2.30;;;4.40;59.10;;;;;;5052367;28;20032;-94
2023/12/14 02:55:30;;;;;;;3.55;1.90;;;4.40;59.10;;;;;;5053630;28;20033;-94
2023/12/14 02:58:02;;;;;;;3.83;2.40;;;4.40;59.10;;;;;;5055423;28;20025;-92
2023/12/14 03:00:31;;;;;;;3.70;1.70;;;4.40;59.20;;;;;;5050679;28;20032;-93
2023/12/14 03:02:57;;;;;;;3.90;2.20;;;4.40;59.20;;;;;;5059418;28;20033;-93
2023/12/14 03:05:22;;;;;;;3.47;2.10;;;4.40;59.20;;;;;;5055863;28;20047;-95
2023/12/14 03:07:48;;;;;;;3.10;1.92;;;4.40;59.20;;;;;;5056157;28;20125;-94
2023/12/14 03:10:15;;;;;;;2.50;1.55;;;4.40;59.20;;;;;;5038221;28;20032;-95
2023/12/14 03:12:42;;;;;;;4.68;2.33;;;4.40;59.30;;;;;;5035222;28;20056;-92
2023/12/14 03:15:09;;;;;;;5.53;2.22;;;4.40;59.30;;;;;;5055550;28;20029;-94
2023/12/14 03:17:37;;;;;;;5.55;2.42;;;4.50;59.50;;;;;;5053061;28;20032;-93
2023/12/14 03:20:06;;;;;;;2.55;1.70;;;4.50;59.50;;;;;;5019483;28;20094;-95
2023/12/14 03:22:35;;;;;;;3.63;2.17;;;4.50;59.50;;;;;;5058630;28;20070;-94
2023/12/14 03:25:03;;;;;;;3.45;1.95;;;4.50;59.50;;;;;;5051524;28;20032;-93
2023/12/14 03:27:29;;;;;;;5.28;2.63;;;4.50;59.50;;;;;;5035518;28;20040;-94
2023/12/14 03:29:56;;;;;;;3.17;1.95;;;4.50;59.50;;;;;;5035070;28;20033;-93
2023/12/14 03:32:25;;;;;;;3.70;1.67;;;4.50;59.50;;;;;;5056036;28;20078;-94
2023/12/14 03:34:53;;;;;;;3.65;2.15;;;4.50;59.60;;;;;;5057497;28;20096;-93
2023/12/14 03:37:19;;;;;;;3.72;2.53;;;4.50;59.60;;;;;;5054998;28;20036;-93
2023/12/14 03:39:45;;;;;;;3.53;2.30;;;4.60;59.80;;;;;;5057835;28;20041;-93
2023/12/14 03:42:10;;;;;;;3.72;2.63;;;4.60;59.80;;;;;;5055109;28;20052;-93
2023/12/14 03:44:36;;;;;;;3.47;1.90;;;4.60;59.80;;;;;;5052157;28;20037;-93
2023/12/14 03:47:03;;;;;;;4.40;2.20;;;4.60;59.90;;;;;;5053324;28;20045;-93
2023/12/14 03:49:30;;;;;;;5.38;2.38;;;4.60;59.90;;;;;;5033048;28;20029;-91
2023/12/14 03:51:56;;;;;;;3.95;2.20;;;4.60;59.90;;;;;;5054292;28;20045;-91
2023/12/14 03:54:22;;;;;;;3.38;2.30;;;4.70;60.10;;;;;;5053802;28;20055;-92
2023/12/14 03:56:48;;;;;;;2.88;2.10;;;4.70;60.10;;;;;;5030121;28;20029;-91
2023/12/14 03:59:14;;;;;;;4.68;2.17;;;4.70;60.10;;;;;;5033781;28;20124;-91
2023/12/14 04:01:40;;;;;;;4.53;2.35;;;4.70;60.20;;;;;;5049795;28;20107;-92
2023/12/14 04:04:06;;;;;;;3.80;1.75;;;4.70;60.20;;;;;;5031327;28;20034;-90
2023/12/14 04:06:33;;;;;;;3.28;2.08;;;4.70;60.20;;;;;;5030477;28;20037;-88
2023/12/14 04:09:00;;;;;;;3.85;2.33;;;4.80;60.40;;;;;;5049245;28;20588;-87
2023/12/14 04:11:27;;;;;;;4.35;2.10;;;4.80;60.40;;;;;;5048655;28;20029;-87
2023/12/14 04:13:53;;;;;;;3.47;2.22;;;4.80;60.40;;;;;;5048422;28;20795;-87
2023/12/14 04:16:20;;;;;;;4.13;2.50;;;4.80;60.40;;;;;;5049501;28;20571;-89
2023/12/14 04:18:46;;;;;;;3.60;2.00;;;4.90;60.60;;;;;;5051412;28;20055;-87
2023/12/14 04:21:12;;;;;;;3.88;2.13;;;4.80;60.40;;;;;;5052054;28;20036;-87
2023/12/14 04:23:38;;;;;;;5.07;2.05;;;4.90;60.60;;;;;;5055239;28;20124;-92
2023/12/14 04:26:04;;;;;;;4.32;2.50;;;4.90;60.70;;;;;;5027854;28;20511;-86
2023/12/14 04:28:30;;;;;;;3.70;2.33;;;4.90;60.70;;;;;;5030645;28;20036;-88
2023/12/14 04:30:56;;;;;;;4.65;2.58;;;4.90;60.70;;;;;;5031313;28;20029;-89
2023/12/14 04:33:22;;;;;;;4.30;1.80;;;5.00;60.90;;;;;;5049984;28;20088;-87
2023/12/14 04:35:48;;;;;;;3.20;2.05;;;4.90;60.70;;;;;;5046975;28;20025;-91
2023/12/14 04:38:14;;;;;;;2.95;2.67;;;4.90;60.70;;;;;;5058320;28;20029;-90
2023/12/14 04:40:40;;;;;;;4.57;2.20;;;4.90;60.70;;;;;;5035992;28;20051;-88
2023/12/14 04:43:07;;;;;;;2.67;2.28;;;5.00;60.90;;;;;;5068681;28;20048;-87
2023/12/14 04:45:32;;;;;;;4.05;2.33;;;5.00;60.90;;;;;;5067940;28;20048;-85
2023/12/14 04:48:00;;;;;;;8.95;3.08;;;5.00;61.00;;;;;;5074176;28;20045;-92
2023/12/14 04:50:26;;;;;;;4.35;2.22;;;5.00;61.50;;;;;;5067427;28;20032;-89
2023/12/14 04:52:52;;;;;;;4.35;2.00;;;5.00;61.00;;;;;;5073678;28;20032;-93
2023/12/14 04:55:18;;;;;;;5.60;2.70;;;5.00;61.00;;;;;;5048671;28;20040;-94
2023/12/14 04:57:46;;;;;;;4.15;2.30;;;5.00;61.00;;;;;;5052546;28;20045;-92
2023/12/14 05:00:12;;;;;;;5.13;2.70;;;5.00;61.00;;;;;;5051586;28;20033;-93
2023/12/14 05:02:38;;;;;;;4.95;2.58;;;5.10;61.20;;;;;;5033993;28;20028;-93
2023/12/14 05:05:05;;;;;;;5.45;2.42;;;5.10;61.20;;;;;;5035659;28;20541;-92
2023/12/14 05:07:35;;;;;;;2.70;2.47;;;5.10;61.30;;;;;;5055138;28;20504;-92
2023/12/14 05:10:02;;;;;;;5.72;2.97;;;5.10;61.20;;;;;;5029889;28;20029;-92
2023/12/14 05:12:28;;;;;;;5.35;2.58;;;5.10;61.30;;;;;;5056547;28;20032;-94
2023/12/14 05:14:54;;;;;;;3.67;2.45;;;5.10;61.30;;;;;;5033020;28;20028;-93
2023/12/14 05:17:20;;;;;;;4.93;2.95;;;5.20;61.50;;;;;;5025100;28;20033;-94
2023/12/14 05:19:48;;;;;;;4.35;2.58;;;5.10;61.30;;;;;;5038133;28;20035;-94
2023/12/14 05:22:14;;;;;;;3.63;2.65;;;5.10;61.30;;;;;;5051867;28;20486;-93
2023/12/14 05:24:40;;;;;;;3.92;2.45;;;5.10;61.40;;;;;;5053723;28;20029;-95
2023/12/14 05:27:06;;;;;;;5.13;2.85;;;5.20;61.60;;;;;;5057478;28;20067;-94
2023/12/14 05:29:35;;;;;;;4.93;3.08;;;5.20;61.60;;;;;;5031628;28;20123;-95
2023/12/14 05:32:02;;;;;;;5.20;3.10;;;5.20;61.70;;;;;;5040155;28;20029;-95
2023/12/14 05:34:28;;;;;;;5.35;3.72;;;5.20;61.70;;;;;;5053959;28;20557;-95
2023/12/14 05:36:55;;;;;;;5.15;2.55;;;5.20;61.70;;;;;;5054755;28;20067;-92
2023/12/14 05:39:22;;;;;;;4.97;3.45;;;5.20;61.70;;;;;;5055595;28;20049;-92
2023/12/14 05:41:48;;;;;;;4.50;3.20;;;5.20;61.70;;;;;;5059303;28;20067;-93
2023/12/14 05:44:15;;;;;;;5.63;2.78;;;5.20;61.80;;;;;;5057402;28;20025;-95
2023/12/14 05:46:42;;;;;;;4.80;2.78;;;5.30;62.00;;;;;;5035900;28;20056;-94
2023/12/14 05:49:10;;;;;;;4.25;3.03;;;5.30;62.00;;;;;;5056893;28;20686;-95
2023/12/14 05:51:39;;;;;;;3.45;2.80;;;5.30;62.00;;;;;;5052558;28;21332;-96
2023/12/14 05:54:09;;;;;;;5.43;3.38;;;5.30;62.00;;;;;;5064038;28;20394;-96
2023/12/14 05:56:36;;;;;;;2.80;2.40;;;5.30;62.00;;;;;;5059199;28;20040;-96
2023/12/14 05:59:03;;;;;;;4.53;2.92;;;5.40;62.20;;;;;;5055401;28;20033;-96
2023/12/14 06:01:30;;;;;;;4.95;2.75;;;5.40;62.30;;;;;;5048042;28;20055;-94
2023/12/14 06:03:58;;;;;;;5.35;3.30;;;5.40;62.30;;;;;;5035968;28;20450;-96
2023/12/14 06:06:33;;;;;;;3.70;2.75;;;5.40;62.30;;;;;;5053398;28;20036;-96
2023/12/14 06:09:01;;;;;;;5.22;2.65;;;5.40;62.40;;;;;;5054187;28;20025;-96
2023/12/14 06:11:27;;;;;;;4.50;3.17;;;5.40;62.40;;;;;;5020692;28;20172;-85
2023/12/14 06:13:52;;;;;;;3.95;2.70;;;5.50;62.60;;;;;;5049472;28;20515;-85
2023/12/14 06:16:22;;;;;;;5.20;3.00;;;5.50;63.10;;;;;;5046251;28;20252;-86
2023/12/14 06:18:48;;;;;;;5.43;2.92;;;5.50;62.60;;;;;;5045582;28;20106;-86
2023/12/14 06:21:14;;;;;;;5.05;3.30;;;5.50;62.60;;;;;;5043146;28;20099;-86
2023/12/14 06:23:40;;;;;;;5.22;3.00;;;5.50;62.70;;;;;;5025919;28;20033;-85
2023/12/14 06:26:07;;;;;;;4.78;2.90;;;5.60;62.90;;;;;;5026311;28;20037;-84
2023/12/14 06:28:33;;;;;;;3.80;2.80;;;5.60;63.00;;;;;;5043914;28;20037;-86
2023/12/14 06:31:01;;;;;;;3.65;2.70;;;5.60;63.00;;;;;;5028066;28;20431;-86
2023/12/14 06:33:27;;;;;;;3.85;2.85;;;5.60;63.00;;;;;;5033999;28;20150;-93
2023/12/14 06:35:53;;;;;;;3.90;2.70;;;5.60;63.10;;;;;;5053589;28;20151;-94
2023/12/14 06:38:22;;;;;;;6.25;3.40;;;5.60;63.10;;;;;;5050792;28;20028;-95
2023/12/14 06:40:49;;;;;;;4.20;2.78;;;5.60;63.10;;;;;;5033959;28;20033;-95
2023/12/14 06:43:23;;;;;;;5.07;3.28;;;5.70;63.30;;;;;;5050155;28;20025;-93
2023/12/14 06:45:49;;;;;;;6.22;2.97;;;5.70;63.40;;;;;;5050734;28;20025;-92
2023/12/14 06:48:16;;;;;;;3.63;2.97;;;5.70;63.40;;;;;;5052484;28;20040;-88
2023/12/14 06:50:43;;;;;;;4.68;2.78;;;5.70;63.40;;;;;;5019485;28;20035;-88
2023/12/14 06:53:09;;;;;;;3.65;3.05;;;5.80;63.60;;;;;;5044075;28;20037;-88
2023/12/14 06:55:36;;;;;;;5.07;2.90;;;5.80;63.70;;;;;;5046925;28;20067;-89
2023/12/14 06:58:02;;;;;;;6.38;3.15;;;5.80;63.90;;;;;;5028437;28;20276;-87
2023/12/14 07:00:31;;;;;;;6.13;3.40;;;5.80;63.90;;;;;;5041309;28;20045;-90
2023/12/14 07:02:58;;;;;;;6.55;3.17;;;5.80;64.00;;;;;;5062939;28;20040;-88
2023/12/14 07:05:24;;;;;;;19.50;5.97;;;5.90;64.20;;;;;;5030493;28;20063;-85
2023/12/14 07:07:51;;;;;;;16.35;6.05;;;5.90;64.20;;;;;;5052463;28;20041;-89
2023/12/14 07:10:18;;;;;;;21.48;6.18;;;6.00;64.50;;;;;;5035599;28;20045;-84
2023/12/14 07:12:43;;;;;;;21.40;5.35;;;6.00;64.80;;;;;;5057114;28;20040;-87
2023/12/14 07:15:10;;;;;;;18.70;5.43;;;6.10;65.20;;;;;;5026989;28;20032;-87
2023/12/14 07:17:42;;;;;;;17.45;4.78;;;6.20;65.60;;;;;;5049266;28;20051;-87
2023/12/14 07:20:11;;;;;;;16.50;5.40;;;6.30;66.00;;;;;;5044120;28;20103;-86
2023/12/14 07:22:39;;;;;;;11.70;5.22;;;6.30;66.10;;;;;;5037080;28;20048;-87
2023/12/14 07:25:06;;;;;;;10.88;4.28;;;6.50;66.60;;;;;;5045844;28;20052;-84
2023/12/14 07:27:32;;;;;;;12.30;4.55;;;6.60;66.80;;;;;;5045046;28;20052;-89
2023/12/14 07:29:58;;;;;;;8.70;4.13;;;6.70;67.10;;;;;;5053986;28;20127;-88
2023/12/14 07:32:26;;;;;;;11.07;3.78;;;6.70;67.10;;;;;;5044687;28;20139;-88
2023/12/14 07:34:52;;;;;;;6.78;3.50;;;6.70;67.20;;;;;;5044303;28;20037;-87
2023/12/14 07:37:19;;;;;;;7.97;3.78;;;6.80;67.50;;;;;;5043110;28;20523;-85
2023/12/14 07:39:45;;;;;;;7.85;3.45;;;6.80;67.50;;;;;;5018885;28;20044;-85
2023/12/14 07:42:19;;;;;;;5.95;2.72;;;6.80;67.60;;;;;;5043936;28;20037;-84
2023/12/14 07:44:45;;;;;;;6.45;3.72;;;6.80;67.60;;;;;;5037658;28;20559;-91
2023/12/14 07:47:13;;;;;;;7.65;3.40;;;6.80;67.70;;;;;;5038773;28;20144;-92
2023/12/14 07:49:39;;;;;;;8.48;3.50;;;6.70;67.50;;;;;;5047715;28;20561;-92
2023/12/14 07:52:05;;;;;;;4.53;2.90;;;6.80;67.80;;;;;;5049148;28;20081;-85
2023/12/14 07:54:36;;;;;;;6.30;3.20;;;6.80;67.80;;;;;;5024617;28;20388;-83
2023/12/14 07:57:02;;;;;;;4.40;2.88;;;6.80;67.90;;;;;;5045265;28;20021;-91
2023/12/14 07:59:29;;;;;;;4.43;3.28;;;6.80;67.90;;;;;;5030785;28;20036;-91
2023/12/14 08:01:56;;;;;;;5.03;3.03;;;6.80;67.90;;;;;;5020038;28;20040;-88
2023/12/14 08:04:23;;;;;;;4.35;3.25;;;6.80;68.00;;;;;;5025979;28;20029;-88
2023/12/14 08:06:50;;;;;;;4.45;2.90;;;6.80;68.00;;;;;;5052771;28;20032;-84
2023/12/14 08:09:16;;;;;;;3.97;2.83;;;6.80;68.00;;;;;;5044931;28;20032;-86
2023/12/14 08:11:42;;;;;;;3.10;2.67;;;6.80;68.10;;;;;;5045458;28;20033;-87
2023/12/14 08:14:09;;;;;;;6.03;2.97;;;6.80;68.10;;;;;;5045388;28;20045;-87
2023/12/14 08:16:37;;;;;;;5.85;2.92;;;6.80;68.10;;;;;;5043669;28;20068;-86
2023/12/14 08:19:03;;;;;;;4.13;2.90;;;6.80;68.10;;;;;;5030712;28;20044;-85
2023/12/14 08:21:30;;;;;;;4.22;3.47;;;6.80;68.20;;;;;;5030128;28;20035;-87
2023/12/14 08:23:57;;;;;;;3.47;2.83;;;6.80;68.20;;;;;;5042682;28;20055;-87
2023/12/14 08:26:23;;;;;;;4.10;3.08;;;6.90;68.30;;;;;;5045506;28;20025;-87
2023/12/14 08:28:49;;;;;;;3.83;2.50;;;6.80;68.20;;;;;;5019289;28;20033;-91
2023/12/14 08:31:18;;;;;;;6.50;2.70;;;6.90;68.40;;;;;;5043483;28;20063;-89
2023/12/14 08:33:46;;;;;;;4.32;2.15;;;6.90;68.90;;;;;;5046695;28;20057;-91
2023/12/14 08:36:21;;;;;;;4.93;2.78;;;6.90;68.40;;;;;;5051603;28;20394;-87
2023/12/14 08:38:48;;;;;;;3.20;2.35;;;6.90;68.50;;;;;;5009773;28;20029;-90
2023/12/14 08:41:15;;;;;;;4.55;2.85;;;6.90;68.90;;;;;;5050670;28;20026;-92
2023/12/14 08:43:43;;;;;;;3.95;2.15;;;7.00;68.60;;;;;;5051648;28;20052;-92
2023/12/14 08:46:14;;;;;;;4.05;2.63;;;7.00;68.60;;;;;;5051906;28;20037;-91
2023/12/14 08:48:41;;;;;;;5.78;2.97;;;7.00;68.60;;;;;;5008374;28;20057;-92
2023/12/14 08:51:08;;;;;;;3.80;2.40;;;7.00;68.60;;;;;;5048621;28;20483;-92
2023/12/14 08:53:38;;;;;;;5.47;2.70;;;7.10;68.80;;;;;;5042545;28;20040;-93
2023/12/14 08:56:05;;;;;;;3.00;1.80;;;7.10;68.80;;;;;;5026283;28;20025;-92
2023/12/14 08:58:34;;;;;;;3.50;2.63;;;7.10;68.70;;;;;;5043436;28;20155;-92
2023/12/14 09:01:02;;;;;;;4.18;1.88;;;7.20;68.90;;;;;;5026999;28;20110;-93
2023/12/14 09:03:28;;;;;;;4.03;2.03;;;7.20;68.90;;;;;;5043812;28;20044;-92
2023/12/14 09:05:58;;;;;;;3.28;1.75;;;7.30;69.10;;;;;;5028596;28;20100;-93
2023/12/14 09:08:24;;;;;;;5.32;2.13;;;7.30;69.10;;;;;;5043845;28;20128;-92
2023/12/14 09:10:52;;;;;;;5.65;2.58;;;7.30;69.10;;;;;;5050249;28;20056;-91
2023/12/14 09:13:19;;;;;;;5.38;2.47;;;7.40;69.20;;;;;;5063727;28;20021;-92
2023/12/14 09:15:47;;;;;;;3.22;1.90;;;7.40;69.30;;;;;;5051163;28;20037;-94
2023/12/14 09:18:16;;;;;;;4.20;1.42;;;7.40;69.20;;;;;;5064323;28;20085;-91
2023/12/14 09:20:46;;;;;;;3.03;2.13;;;7.50;69.40;;;;;;5064534;28;20116;-90
2023/12/14 09:23:19;;;;;;;3.83;1.83;;;7.50;69.40;;;;;;5068354;28;20072;-90
2023/12/14 09:25:47;;;;;;;3.63;2.85;;;7.60;69.50;;;;;;5064438;28;20013;-91
2023/12/14 09:28:15;;;;;;;5.07;2.25;;;7.60;69.50;;;;;;5046613;28;20065;-90
2023/12/14 09:30:42;;;;;;;3.25;1.70;;;7.70;69.60;;;;;;5052960;28;20071;-90
2023/12/14 09:33:10;;;;;;;2.17;1.60;;;7.80;69.80;;;;;;5032947;28;20055;-90
2023/12/14 09:35:43;;;;;;;3.22;1.83;;;7.80;69.80;;;;;;5035484;28;20044;-90
2023/12/14 09:38:17;;;;;;;;;;;7.80;69.80;;;;;;5048542;28;20304;-90
2023/12/14 09:40:45;;;;;;;2.17;1.60;;;7.90;69.90;;;;;;5046069;28;20549;-90
2023/12/14 09:43:15;;;;;;;1.90;1.60;;;7.90;70.20;;;;;;5049183;28;20051;-91
2023/12/14 09:45:44;;;;;;;2.63;1.48;;;8.00;70.00;;;;;;5048179;28;20024;-90
2023/12/14 09:48:15;;;;;;;3.28;1.70;;;8.00;70.00;;;;;;5025116;28;21240;-90
2023/12/14 09:50:42;;;;;;;4.00;2.03;;;8.00;70.00;;;;;;5051885;28;20109;-91
2023/12/14 09:53:12;;;;;;;2.63;1.58;;;8.10;70.30;;;;;;5050187;28;20040;-92
2023/12/14 09:55:40;;;;;;;2.90;1.63;;;8.10;70.30;;;;;;5032243;28;20033;-92
2023/12/14 09:58:09;;;;;;;2.40;1.30;;;8.10;70.30;;;;;;5024009;28;20040;-92
2023/12/14 10:00:40;;;;;;;2.38;1.52;;;8.20;70.50;;;;;;5041434;28;20467;-93
2023/12/14 10:03:28;;;;;;;3.45;1.80;;;8.20;70.50;;;;;;4996636;28;20041;-89
2023/12/14 10:05:55;;;;;;;3.75;1.40;;;8.30;70.70;;;;;;5051486;28;20029;-89
2023/12/14 10:08:24;;;;;;;1.30;1.20;;;8.30;70.60;;;;;;5048525;28;20045;-90
2023/12/14 10:10:53;;;;;;;5.05;1.45;;;8.30;70.60;;;;;;5028581;28;20025;-88
2023/12/14 10:13:21;;;;;;;1.63;1.08;;;8.40;70.80;;;;;;5048253;28;20056;-87
2023/12/14 10:15:49;;;;;;;3.45;1.52;;;8.40;70.80;;;;;;5046455;28;20059;-86
2023/12/14 10:18:24;;;;;;;3.35;1.75;;;8.50;71.00;;;;;;5045424;28;20059;-89
2023/12/14 10:21:01;;;;;;;2.43;1.50;;;8.50;71.00;;;;;;5033336;28;20566;-86
2023/12/14 10:23:29;;;;;;;3.85;1.60;;;8.60;71.20;;;;;;5039729;28;20399;-85
2023/12/14 10:25:57;;;;;;;1.55;1.30;;;8.60;71.20;;;;;;5044618;28;20638;-86
2023/12/14 10:28:24;;;;;;;4.00;1.73;;;8.70;71.30;;;;;;5029851;28;20045;-86
2023/12/14 10:30:54;;;;;;;1.60;1.30;;;8.80;71.40;;;;;;5019782;28;20240;-86
2023/12/14 10:33:20;;;;;;;3.53;1.50;;;8.80;71.30;;;;;;5042911;28;20119;-85
2023/12/14 10:35:48;;;;;;;4.65;1.70;;;8.90;71.40;;;;;;5044713;28;20491;-84
2023/12/14 10:38:17;;;;;;;3.45;1.17;;;9.00;71.50;;;;;;5051262;28;20033;-88
2023/12/14 10:40:46;;;;;;;3.63;1.75;;;9.00;71.50;;;;;;5057000;28;20055;-86
2023/12/14 10:43:13;;;;;;;3.30;1.42;;;9.00;71.50;;;;;;5047854;28;20059;-85
2023/12/14 10:45:42;;;;;;;3.13;1.55;;;9.10;71.60;;;;;;5023329;28;20474;-85
2023/12/14 10:48:08;;;;;;;3.47;1.58;;;9.10;71.60;;;;;;5027743;28;20087;-85
2023/12/14 10:50:37;;;;;;;3.50;1.33;;;9.20;71.80;;;;;;5046347;28;20139;-87
2023/12/14 10:53:06;;;;;;;2.65;1.60;;;9.20;71.80;;;;;;5040055;28;20033;-88
2023/12/14 10:55:42;;;;;;;3.35;1.42;;;9.30;71.90;;;;;;5024036;28;20033;-85
2023/12/14 10:58:10;;;;;;;1.85;1.38;;;9.30;71.90;;;;;;5056820;23;20903;-82
2023/12/14 11:00:37;;;;;;;3.65;1.27;;;9.40;72.00;;;;;;4992032;28;20077;-81
2023/12/14 11:03:06;;;;;;;1.75;1.52;;;9.50;72.00;;;;;;4991603;28;20030;-82
2023/12/14 11:05:36;;;;;;;3.67;1.42;;;9.50;72.00;;;;;;4993382;28;20034;-80
2023/12/14 11:08:09;;;;;;;5.05;2.28;;;9.60;72.10;;;;;;4991997;28;20389;-82
2023/12/14 11:10:37;;;;;;;;;;;9.60;72.00;;;;;;4996555;28;20026;-82
2023/12/14 11:13:10;;;;;;;1.92;1.20;;;9.70;72.20;;;;;;4991186;28;19920;-83
2023/12/14 11:15:37;;;;;;;3.67;1.42;;;9.70;72.00;;;;;;4992451;28;20516;-82
2023/12/14 11:18:11;;;;;;;2.83;1.55;;;9.80;72.10;;;;;;4995620;28;20057;-83
2023/12/14 11:21:01;;;;;;;2.55;1.52;;;9.80;72.00;;;;;;4989088;28;20034;-84
2023/12/14 11:23:33;;;;;;;3.15;1.45;;;9.90;72.10;;;;;;4995941;28;20029;-83
2023/12/14 11:26:09;;;;;;;2.47;1.42;;;9.90;72.00;;;;;;4990926;28;20091;-85
2023/12/14 11:28:37;;;;;;;3.22;1.55;;;10.00;72.60;;;;;;4986141;28;20153;-83
2023/12/14 11:31:06;;;;;;;2.25;1.50;;;10.10;72.20;;;;;;4987933;28;20026;-83
2023/12/14 11:33:34;;;;;;;1.60;1.50;;;10.10;72.20;;;;;;4993666;28;20504;-83
2023/12/14 11:36:05;;;;;;;3.15;1.50;;;10.10;72.10;;;;;;4991473;28;20196;-84
2023/12/14 11:38:32;;;;;;;2.13;1.30;;;10.20;72.30;;;;;;4989722;28;20033;-84
2023/12/14 11:40:59;;;;;;;2.85;1.30;;;10.20;72.20;;;;;;4992817;28;20093;-83
2023/12/14 11:43:26;;;;;;;2.38;1.70;;;10.30;72.40;;;;;;4994599;28;20022;-84
2023/12/14 11:45:55;;;;;;;4.05;1.60;;;10.30;72.40;;;;;;4991873;28;20599;-83
2023/12/14 11:48:22;;;;;;;2.08;1.38;;;10.30;72.40;;;;;;4990909;28;20038;-84
2023/12/14 11:50:48;;;;;;;2.38;1.35;;;10.40;72.50;;;;;;4988724;28;20063;-82
2023/12/14 11:53:14;;;;;;;3.58;1.58;;;10.40;72.50;;;;;;4991278;28;20125;-82
2023/12/14 11:55:42;;;;;;;5.63;1.60;;;10.40;72.50;;;;;;4995374;28;20128;-82
2023/12/14 11:58:08;;;;;;;2.15;1.60;;;10.50;72.60;;;;;;4991694;28;20112;-80
2023/12/14 12:00:39;;;;;;;2.88;1.42;;;10.60;72.70;;;;;;4982730;28;20033;-80
2023/12/14 12:03:09;;;;;;;3.33;1.75;;;10.60;72.60;;;;;;4993539;28;20038;-81
2023/12/14 12:05:47;;;;;;;1.98;1.50;;;10.60;72.60;;;;;;4992410;28;20046;-82
2023/12/14 12:08:18;;;;;;;4.03;1.52;;;10.70;72.70;;;;;;4994461;28;20904;-82
2023/12/14 12:10:46;;;;;;;5.35;1.88;;;10.70;72.60;;;;;;4994665;28;20562;-80
2023/12/14 12:13:14;;;;;;;1.80;1.20;;;10.70;72.60;;;;;;4987346;28;20034;-80
2023/12/14 12:15:41;;;;;;;2.70;1.70;;;10.70;72.50;;;;;;4993430;28;20057;-79
2023/12/14 12:18:08;;;;;;;3.58;1.88;;;10.80;72.70;;;;;;4993951;28;20030;-81
2023/12/14 12:20:34;;;;;;;1.85;1.70;;;10.80;72.70;;;;;;4990878;28;20420;-81
2023/12/14 12:23:04;;;;;;;3.38;1.65;;;10.80;72.70;;;;;;4994273;28;20117;-80
2023/12/14 12:25:31;;;;;;;3.78;1.67;;;10.90;72.80;;;;;;4991077;28;20499;-80
2023/12/14 12:27:58;;;;;;;2.53;2.13;;;10.90;72.70;;;;;;4990999;28;20033;-80
2023/12/14 12:30:25;;;;;;;2.92;1.95;;;10.90;72.60;;;;;;4989964;28;20033;-80
2023/12/14 12:32:51;;;;;;;2.80;1.92;;;11.00;72.70;;;;;;4983191;28;20445;-80
2023/12/14 12:35:18;;;;;;;3.72;2.10;;;10.90;72.60;;;;;;4990213;28;20060;-81
2023/12/14 12:37:45;;;;;;;4.22;2.00;;;11.00;72.80;;;;;;4997218;28;20036;-83
2023/12/14 12:40:11;;;;;;;3.38;1.77;;;11.00;72.80;;;;;;4994751;28;20048;-79
2023/12/14 12:42:37;;;;;;;3.83;2.15;;;11.00;72.80;;;;;;4974524;28;20042;-79
2023/12/14 12:45:04;;;;;;;3.90;2.28;;;11.00;72.80;;;;;;4982007;28;20035;-80
2023/12/14 12:47:30;;;;;;;4.20;2.17;;;11.00;72.80;;;;;;4994044;28;20042;-81
2023/12/14 12:49:57;;;;;;;3.92;2.00;;;11.00;72.80;;;;;;4997195;28;20118;-80
2023/12/14 12:52:22;;;;;;;4.18;2.45;;;11.10;72.90;;;;;;4987594;28;20117;-83
2023/12/14 12:54:48;;;;;;;6.43;3.05;;;11.00;72.70;;;;;;4997125;28;20030;-80
2023/12/14 12:57:14;;;;;;;6.00;2.40;;;11.00;73.30;;;;;;4997494;28;20422;-79